Time;durP1;ratioP1;P1;durP2;ratioP2;P2;SDS_P1;SDS_P2;PMS_P1;PMS_P2;Temp;Humidity;BMP_temperature;BMP_pressure;BME280_temperature;BME280_humidity;BME280_pressure;Samples;Min_cycle;Max_cycle;Signal;HPM_P1;HPM_P2
2022/09/12 00:00:31;;;;;;;5.97;2.80;;;12.80;99.90;;;;;;4847100;29;20493;-86
2022/09/12 00:02:58;;;;;;;4.13;2.40;;;12.10;99.90;;;;;;4847671;29;20108;-86
2022/09/12 00:05:25;;;;;;;3.63;2.33;;;12.80;99.90;;;;;;4846811;29;20548;-86
2022/09/12 00:07:50;;;;;;;3.15;2.00;;;12.80;99.90;;;;;;4862629;29;20675;-86
2022/09/12 00:10:16;;;;;;;4.82;3.00;;;12.80;99.90;;;;;;4831466;29;20046;-87
2022/09/12 00:12:42;;;;;;;4.20;2.45;;;12.80;99.90;;;;;;4847068;29;20050;-86
2022/09/12 00:15:09;;;;;;;4.07;2.47;;;12.80;99.90;;;;;;4862481;29;20412;-87
2022/09/12 00:17:36;;;;;;;4.20;2.60;;;12.80;99.90;;;;;;4831757;29;20056;-87
2022/09/12 00:20:06;;;;;;;4.85;2.83;;;12.80;99.90;;;;;;4846207;29;20041;-86
2022/09/12 00:22:31;;;;;;;3.45;2.13;;;12.80;99.90;;;;;;4862616;29;20484;-86
2022/09/12 00:24:57;;;;;;;4.85;2.72;;;12.80;99.90;;;;;;4847001;29;20089;-87
2022/09/12 00:27:23;;;;;;;4.07;2.45;;;12.80;99.90;;;;;;4847205;29;20572;-87
2022/09/12 00:29:49;;;;;;;3.40;2.03;;;12.80;99.90;;;;;;4814065;29;20049;-88
2022/09/12 00:32:14;;;;;;;3.70;2.38;;;12.90;99.90;;;;;;4861679;29;20507;-87
2022/09/12 00:34:40;;;;;;;4.35;2.42;;;13.10;99.90;;;;;;4847283;29;20041;-87
2022/09/12 00:37:06;;;;;;;3.05;2.17;;;12.90;99.90;;;;;;4846776;29;20053;-87
2022/09/12 00:39:31;;;;;;;3.95;2.20;;;12.90;99.90;;;;;;4846703;29;20076;-87
2022/09/12 00:41:57;;;;;;;3.50;1.65;;;12.90;99.90;;;;;;4846654;29;20049;-86
2022/09/12 00:44:23;;;;;;;3.55;2.17;;;12.90;99.90;;;;;;4846387;29;20049;-86
2022/09/12 00:47:05;;;;;;;2.67;1.85;;;12.80;99.90;;;;;;4861982;29;20050;-86
2022/09/12 00:49:42;;;;;;;3.03;2.15;;;12.80;99.90;;;;;;4843525;29;20048;-86
2022/09/12 00:52:12;;;;;;;4.53;3.25;;;12.80;99.90;;;;;;4852953;29;20781;-86
2022/09/12 00:54:44;;;;;;;4.10;2.30;;;12.80;99.90;;;;;;4861491;29;20083;-86
2022/09/12 00:57:13;;;;;;;4.45;2.95;;;12.90;99.90;;;;;;4846352;29;20038;-87
2022/09/12 00:59:52;;;;;;;3.42;2.15;;;12.80;99.90;;;;;;4862025;29;20045;-87
2022/09/12 01:02:18;;;;;;;4.07;2.42;;;12.80;99.90;;;;;;4861804;29;20104;-87
2022/09/12 01:04:46;;;;;;;3.30;1.92;;;12.80;99.90;;;;;;4831064;29;20060;-87
2022/09/12 01:07:14;;;;;;;3.50;2.10;;;12.80;99.90;;;;;;4861571;29;20053;-87
2022/09/12 01:09:41;;;;;;;2.40;1.80;;;12.80;99.90;;;;;;4861826;29;20045;-87
2022/09/12 01:12:08;;;;;;;2.72;1.70;;;12.80;99.90;;;;;;4846172;29;20392;-87
2022/09/12 01:14:34;;;;;;;2.97;2.00;;;12.70;99.90;;;;;;4846363;29;20049;-87
2022/09/12 01:17:00;;;;;;;3.13;2.00;;;12.70;99.90;;;;;;4861310;29;20052;-86
2022/09/12 01:19:51;;;;;;;7.57;2.30;;;12.80;99.90;;;;;;4861144;29;20116;-87
2022/09/12 01:22:38;;;;;;;2.97;2.00;;;12.70;99.90;;;;;;4861433;29;20054;-86
2022/09/12 01:25:27;;;;;;;3.78;2.20;;;12.70;99.90;;;;;;4861153;29;20061;-87
2022/09/12 01:28:30;;;;;;;3.97;1.92;;;12.70;99.90;;;;;;4846132;29;20100;-87
2022/09/12 01:31:12;;;;;;;3.40;2.15;;;12.60;99.90;;;;;;4860177;29;20050;-87
2022/09/12 01:34:00;;;;;;;2.78;1.85;;;12.60;99.90;;;;;;4861132;29;20511;-87
2022/09/12 01:36:33;;;;;;;2.92;1.95;;;12.60;99.90;;;;;;4827530;29;20132;-87
2022/09/12 01:39:42;;;;;;;2.65;1.85;;;12.60;99.90;;;;;;4853904;29;20049;-86
2022/09/12 01:42:25;;;;;;;3.30;2.35;;;12.60;99.90;;;;;;4860766;29;20072;-87
2022/09/12 01:44:56;;;;;;;3.28;1.90;;;12.60;99.90;;;;;;4845229;29;20049;-87
2022/09/12 01:47:25;;;;;;;2.72;1.77;;;12.60;99.90;;;;;;4845618;29;20109;-87
2022/09/12 01:50:00;;;;;;;2.92;1.95;;;12.60;99.90;;;;;;4835808;29;20047;-86
2022/09/12 01:52:45;;;;;;;3.13;2.00;;;12.60;99.90;;;;;;4860896;29;20086;-86
2022/09/12 01:55:45;;;;;;;2.58;1.50;;;12.60;99.90;;;;;;4844885;29;20052;-86
2022/09/12 01:58:19;;;;;;;4.60;2.80;;;12.60;99.90;;;;;;4844903;29;20060;-86
2022/09/12 02:01:07;;;;;;;4.25;2.28;;;12.50;99.90;;;;;;4860725;29;20083;-87
2022/09/12 02:03:51;;;;;;;4.05;2.78;;;12.60;99.90;;;;;;4845402;29;20042;-86
2022/09/12 02:06:26;;;;;;;3.83;2.72;;;12.60;99.90;;;;;;4845284;29;20037;-87
2022/09/12 02:08:57;;;;;;;4.65;3.00;;;12.60;99.90;;;;;;4861125;29;20045;-87
2022/09/12 02:11:23;;;;;;;3.75;2.25;;;12.60;99.90;;;;;;4860762;29;20136;-87
2022/09/12 02:14:02;;;;;;;3.10;2.00;;;12.50;99.90;;;;;;4860782;29;20084;-87
2022/09/12 02:16:34;;;;;;;3.30;2.20;;;12.50;99.90;;;;;;4860267;29;20049;-86
2022/09/12 02:19:09;;;;;;;3.42;2.20;;;12.50;99.90;;;;;;4860969;29;20073;-87
2022/09/12 02:21:38;;;;;;;3.67;2.17;;;12.40;99.90;;;;;;4844837;29;20037;-86
2022/09/12 02:24:09;;;;;;;3.67;2.22;;;12.40;99.90;;;;;;4844678;29;20041;-86
2022/09/12 02:26:41;;;;;;;5.35;2.97;;;12.40;99.90;;;;;;4844531;29;20053;-86
2022/09/12 02:29:07;;;;;;;3.33;1.98;;;12.40;99.90;;;;;;4860598;29;20097;-86
2022/09/12 02:31:35;;;;;;;3.58;2.13;;;12.40;99.90;;;;;;4844902;29;20045;-86
2022/09/12 02:34:25;;;;;;;3.30;2.17;;;12.30;99.90;;;;;;4846485;29;20408;-86
2022/09/12 02:37:00;;;;;;;3.60;2.33;;;12.30;99.90;;;;;;4860188;29;20116;-86
2022/09/12 02:39:26;;;;;;;6.03;2.67;;;12.30;99.90;;;;;;4860317;29;20446;-86
2022/09/12 02:41:55;;;;;;;3.17;2.17;;;12.30;99.90;;;;;;4844504;29;20114;-87
2022/09/12 02:44:22;;;;;;;5.20;2.55;;;12.30;99.90;;;;;;4844764;29;20489;-86
2022/09/12 02:46:52;;;;;;;2.80;1.73;;;12.30;99.90;;;;;;4860056;29;20087;-86
2022/09/12 02:49:19;;;;;;;4.90;2.88;;;12.20;99.90;;;;;;4858022;29;20056;-86
2022/09/12 02:51:45;;;;;;;5.03;2.88;;;12.30;99.90;;;;;;4841572;29;20053;-87
2022/09/12 02:54:12;;;;;;;4.32;2.65;;;12.30;99.90;;;;;;4841524;29;20077;-86
2022/09/12 02:56:41;;;;;;;4.22;2.38;;;12.30;99.90;;;;;;4826521;29;20046;-86
2022/09/12 02:59:10;;;;;;;3.47;2.28;;;12.20;99.90;;;;;;4838680;29;20034;-86
2022/09/12 03:02:06;;;;;;;3.05;1.98;;;12.30;99.90;;;;;;4859774;29;20080;-86
2022/09/12 03:04:59;;;;;;;3.70;2.22;;;12.20;99.90;;;;;;4861337;29;20049;-86
2022/09/12 03:07:43;;;;;;;4.35;2.65;;;12.20;99.90;;;;;;4859806;29;20054;-86
2022/09/12 03:10:32;;;;;;;4.18;2.58;;;12.20;99.90;;;;;;4844096;29;20124;-85
2022/09/12 03:13:09;;;;;;;4.28;2.42;;;12.20;99.90;;;;;;4859930;29;20085;-87
2022/09/12 03:15:39;;;;;;;4.35;2.40;;;12.20;99.90;;;;;;4859848;29;20129;-86
2022/09/12 03:18:42;;;;;;;4.68;2.70;;;12.20;99.90;;;;;;4860163;29;20129;-86
2022/09/12 03:21:26;;;;;;;5.50;3.08;;;12.20;99.90;;;;;;4840363;29;20054;-86
2022/09/12 03:24:02;;;;;;;5.15;2.55;;;12.20;99.90;;;;;;4841359;29;20049;-86
2022/09/12 03:26:41;;;;;;;;;;;12.20;99.90;;;;;;4841647;29;20493;-87
2022/09/12 03:29:09;;;;;;;5.43;2.80;;;12.20;99.90;;;;;;4841477;29;19920;-85
2022/09/12 03:31:35;;;;;;;5.95;3.08;;;12.20;99.90;;;;;;4859177;29;20041;-85
2022/09/12 03:34:01;;;;;;;4.88;3.17;;;12.20;99.90;;;;;;4859400;29;20052;-85
2022/09/12 03:36:28;;;;;;;4.50;2.90;;;12.20;99.90;;;;;;4859580;29;20041;-85
2022/09/12 03:38:54;;;;;;;4.85;3.00;;;12.10;99.90;;;;;;4829260;29;20044;-85
2022/09/12 03:41:20;;;;;;;5.85;3.17;;;12.20;99.90;;;;;;4864686;24;20061;-87
2022/09/12 03:43:46;;;;;;;6.05;3.53;;;12.20;99.90;;;;;;4844008;29;20041;-87
2022/09/12 03:46:12;;;;;;;7.10;3.95;;;12.20;99.90;;;;;;4844577;29;20162;-87
2022/09/12 03:48:39;;;;;;;7.97;4.45;;;12.20;99.90;;;;;;4828856;29;20077;-87
2022/09/12 03:51:07;;;;;;;5.75;3.67;;;12.20;99.90;;;;;;4858074;29;20045;-87
2022/09/12 03:53:33;;;;;;;7.18;4.00;;;12.20;99.90;;;;;;4843790;29;20061;-87
2022/09/12 03:55:59;;;;;;;6.57;3.72;;;12.00;99.90;;;;;;4862623;29;20077;-86
2022/09/12 03:58:29;;;;;;;7.15;4.05;;;12.30;99.90;;;;;;4850787;29;20037;-87
2022/09/12 04:00:55;;;;;;;7.60;4.20;;;12.70;99.90;;;;;;4813917;29;20042;-85
2022/09/12 04:03:21;;;;;;;7.13;4.22;;;12.20;99.90;;;;;;4828816;29;20110;-85
2022/09/12 04:05:47;;;;;;;5.55;3.38;;;12.30;99.90;;;;;;4844653;29;20061;-85
2022/09/12 04:08:13;;;;;;;5.90;3.25;;;12.20;99.90;;;;;;4851889;29;20078;-85
2022/09/12 04:10:39;;;;;;;7.18;3.78;;;12.20;99.90;;;;;;4848224;29;20041;-85
2022/09/12 04:13:05;;;;;;;7.55;3.63;;;12.30;99.90;;;;;;4850655;29;20073;-85
2022/09/12 04:15:31;;;;;;;7.78;4.05;;;12.30;99.90;;;;;;4861540;29;20068;-87
2022/09/12 04:17:57;;;;;;;7.25;4.40;;;12.30;99.90;;;;;;4873357;29;20033;-86
2022/09/12 04:20:23;;;;;;;7.28;4.35;;;12.40;99.90;;;;;;4862204;29;20539;-86
2022/09/12 04:22:49;;;;;;;7.88;4.70;;;12.50;99.90;;;;;;4852622;29;20503;-85
2022/09/12 04:25:14;;;;;;;11.15;6.32;;;12.60;99.90;;;;;;4850182;29;20045;-85
2022/09/12 04:27:40;;;;;;;15.27;7.43;;;12.70;99.90;;;;;;4846970;29;20037;-85
2022/09/12 04:30:07;;;;;;;12.57;7.35;;;12.80;99.90;;;;;;4846786;29;20132;-85
2022/09/12 04:32:33;;;;;;;11.00;6.28;;;12.90;99.90;;;;;;4846742;29;20416;-85
2022/09/12 04:34:59;;;;;;;7.78;4.75;;;12.90;99.90;;;;;;4848744;29;20042;-86
2022/09/12 04:37:25;;;;;;;9.52;5.20;;;13.00;99.90;;;;;;4849745;29;20037;-86
2022/09/12 04:39:56;;;;;;;13.15;6.97;;;13.10;99.90;;;;;;4872896;29;20056;-86
2022/09/12 04:42:22;;;;;;;7.93;4.57;;;13.10;99.90;;;;;;4861923;29;20045;-85
2022/09/12 04:44:48;;;;;;;12.20;6.47;;;13.20;99.90;;;;;;4861954;29;20128;-86
2022/09/12 04:47:14;;;;;;;12.95;6.40;;;13.20;99.90;;;;;;4863483;29;20166;-86
2022/09/12 04:49:39;;;;;;;13.75;6.68;;;13.20;99.90;;;;;;4850415;29;20038;-86
2022/09/12 04:52:06;;;;;;;8.80;4.95;;;13.30;99.90;;;;;;4861736;29;20045;-85
2022/09/12 04:54:32;;;;;;;13.75;7.65;;;13.30;99.90;;;;;;4861066;29;20124;-85
2022/09/12 04:56:58;;;;;;;13.45;6.88;;;13.40;99.90;;;;;;4861383;29;20106;-85
2022/09/12 04:59:24;;;;;;;11.63;6.07;;;13.40;99.90;;;;;;4851193;29;20037;-85
2022/09/12 05:01:50;;;;;;;10.32;6.28;;;13.50;99.90;;;;;;4875029;29;20093;-85
2022/09/12 05:04:16;;;;;;;12.25;5.75;;;13.50;99.90;;;;;;4864702;29;20041;-85
2022/09/12 05:06:42;;;;;;;9.40;5.90;;;13.60;99.90;;;;;;4852868;29;20052;-85
2022/09/12 05:09:11;;;;;;;9.82;5.57;;;13.60;99.90;;;;;;4861507;29;20045;-87
2022/09/12 05:11:39;;;;;;;9.57;4.90;;;13.60;99.90;;;;;;4845922;29;20053;-87
2022/09/12 05:14:05;;;;;;;9.07;5.38;;;13.70;99.90;;;;;;4877248;29;20045;-87
2022/09/12 05:16:31;;;;;;;11.57;5.97;;;13.70;99.90;;;;;;4839267;29;20194;-87
2022/09/12 05:18:58;;;;;;;10.60;6.55;;;13.70;99.90;;;;;;4861570;29;20041;-87
2022/09/12 05:21:25;;;;;;;10.15;5.70;;;13.80;99.90;;;;;;4877076;29;20045;-87
2022/09/12 05:23:55;;;;;;;10.35;5.72;;;13.80;99.90;;;;;;4880308;29;20045;-86
2022/09/12 05:26:21;;;;;;;9.10;5.60;;;13.90;99.90;;;;;;4855603;29;20101;-86
2022/09/12 05:28:48;;;;;;;13.32;6.38;;;14.00;99.90;;;;;;4847194;29;20049;-86
2022/09/12 05:31:16;;;;;;;11.02;6.47;;;14.00;99.90;;;;;;4877877;29;20514;-85
2022/09/12 05:33:43;;;;;;;12.65;6.93;;;14.10;99.90;;;;;;4864166;29;20056;-85
2022/09/12 05:36:20;;;;;;;11.48;6.85;;;14.00;99.90;;;;;;4864015;29;20045;-85
2022/09/12 05:38:46;;;;;;;11.77;6.13;;;14.10;99.90;;;;;;4851063;29;20040;-85
2022/09/12 05:41:32;;;;;;;12.27;6.63;;;14.10;99.90;;;;;;4852176;29;20198;-87
2022/09/12 05:44:02;;;;;;;11.52;6.53;;;14.10;99.90;;;;;;4860855;29;20481;-87
2022/09/12 05:46:30;;;;;;;10.70;6.53;;;14.20;99.90;;;;;;4860761;29;20177;-87
2022/09/12 05:48:57;;;;;;;12.55;5.80;;;14.20;99.90;;;;;;4845238;29;20082;-87
2022/09/12 05:51:25;;;;;;;11.50;6.28;;;14.20;99.90;;;;;;4830084;29;20053;-87
2022/09/12 05:53:56;;;;;;;15.32;8.18;;;14.30;99.90;;;;;;4831894;29;20046;-87
2022/09/12 05:56:24;;;;;;;12.68;6.85;;;14.30;99.90;;;;;;4843189;29;20057;-87
2022/09/12 05:58:59;;;;;;;17.55;8.88;;;14.40;99.90;;;;;;4860346;29;20373;-87
2022/09/12 06:01:26;;;;;;;13.00;6.78;;;14.40;99.90;;;;;;4849554;29;20076;-87
2022/09/12 06:03:53;;;;;;;15.07;7.72;;;14.50;99.90;;;;;;4859051;29;20038;-87
2022/09/12 06:06:22;;;;;;;12.00;5.75;;;14.50;99.90;;;;;;4859491;29;20052;-87
2022/09/12 06:08:52;;;;;;;11.30;5.60;;;14.60;99.90;;;;;;4878904;29;20135;-87
2022/09/12 06:11:20;;;;;;;10.85;6.05;;;14.60;99.90;;;;;;4845073;29;20056;-87
2022/09/12 06:13:46;;;;;;;12.43;7.10;;;14.70;99.90;;;;;;4860550;29;20530;-87
2022/09/12 06:16:23;;;;;;;13.68;7.40;;;14.70;99.90;;;;;;4860360;29;20052;-87
2022/09/12 06:18:50;;;;;;;12.68;6.68;;;14.80;99.90;;;;;;4867010;29;20570;-87
2022/09/12 06:21:17;;;;;;;14.48;7.50;;;14.90;99.90;;;;;;4878477;29;20049;-87
2022/09/12 06:23:44;;;;;;;18.10;8.75;;;14.90;99.90;;;;;;4840269;29;20037;-87
2022/09/12 06:26:10;;;;;;;14.35;7.47;;;14.90;99.90;;;;;;4849627;29;20445;-86
2022/09/12 06:28:38;;;;;;;19.15;9.68;;;15.00;99.90;;;;;;4848214;29;20044;-87
2022/09/12 06:31:06;;;;;;;18.40;9.85;;;15.00;99.90;;;;;;4878782;29;20084;-87
2022/09/12 06:33:37;;;;;;;16.77;9.32;;;15.00;99.90;;;;;;4847080;29;20113;-87
2022/09/12 06:36:10;;;;;;;16.27;8.02;;;15.00;99.90;;;;;;4852020;29;20499;-87
2022/09/12 06:38:37;;;;;;;19.05;10.27;;;15.00;99.90;;;;;;4878592;29;20102;-87
2022/09/12 06:41:06;;;;;;;20.25;11.10;;;15.00;99.90;;;;;;4878293;29;20072;-87
2022/09/12 06:43:32;;;;;;;24.58;11.07;;;15.10;99.90;;;;;;4854677;29;20052;-87
2022/09/12 06:45:58;;;;;;;21.88;9.95;;;15.10;99.90;;;;;;4862976;29;20049;-87
2022/09/12 06:48:24;;;;;;;18.85;9.52;;;15.20;99.90;;;;;;4848283;29;20048;-87
2022/09/12 06:51:02;;;;;;;20.58;9.77;;;15.30;99.90;;;;;;4858956;29;20049;-86
2022/09/12 06:53:29;;;;;;;21.80;10.40;;;15.40;99.90;;;;;;4863121;29;20397;-87
2022/09/12 06:56:08;;;;;;;20.98;10.13;;;15.40;99.90;;;;;;4847423;29;20045;-86
2022/09/12 06:58:34;;;;;;;22.15;10.18;;;15.60;99.90;;;;;;4863313;29;20041;-86
2022/09/12 07:01:05;;;;;;;22.60;10.98;;;15.70;99.90;;;;;;4871116;29;20045;-86
2022/09/12 07:03:32;;;;;;;20.02;10.23;;;15.80;99.90;;;;;;4845118;29;20041;-87
2022/09/12 07:06:03;;;;;;;17.23;9.32;;;15.80;99.90;;;;;;4852500;29;20042;-87
2022/09/12 07:08:30;;;;;;;19.50;9.48;;;15.90;99.90;;;;;;4848290;29;20055;-87
2022/09/12 07:10:58;;;;;;;18.52;9.18;;;16.00;99.90;;;;;;4848028;29;20228;-87
2022/09/12 07:13:24;;;;;;;14.15;7.90;;;15.90;99.90;;;;;;4861029;29;20128;-87
2022/09/12 07:15:50;;;;;;;20.17;9.75;;;16.00;99.90;;;;;;4859451;29;20040;-87
2022/09/12 07:18:16;;;;;;;23.92;11.18;;;16.00;99.90;;;;;;4842825;29;20037;-87
2022/09/12 07:20:42;;;;;;;21.10;9.45;;;16.00;99.90;;;;;;4863000;29;20045;-87
2022/09/12 07:23:08;;;;;;;23.48;10.75;;;16.00;99.90;;;;;;4863520;29;20068;-87
2022/09/12 07:25:34;;;;;;;20.25;9.45;;;16.00;99.90;;;;;;4874479;29;20487;-87
2022/09/12 07:28:02;;;;;;;20.15;10.45;;;16.10;99.90;;;;;;4878381;29;20045;-87
2022/09/12 07:30:28;;;;;;;24.23;10.68;;;16.20;99.90;;;;;;4843700;29;20041;-87
2022/09/12 07:32:53;;;;;;;24.73;11.73;;;16.30;99.90;;;;;;4851035;29;20048;-87
2022/09/12 07:35:20;;;;;;;23.10;10.75;;;16.50;99.90;;;;;;4865017;29;20076;-87
2022/09/12 07:37:46;;;;;;;18.05;9.07;;;16.70;99.90;;;;;;4847091;29;20041;-86
2022/09/12 07:40:11;;;;;;;18.38;9.27;;;16.80;99.90;;;;;;4837808;29;20064;-86
2022/09/12 07:42:37;;;;;;;23.00;11.13;;;17.00;99.90;;;;;;4848231;29;20148;-86
2022/09/12 07:45:03;;;;;;;19.02;10.18;;;17.00;99.90;;;;;;4863056;29;20405;-86
2022/09/12 07:47:29;;;;;;;21.52;10.88;;;17.10;99.90;;;;;;4855322;29;20495;-86
2022/09/12 07:49:55;;;;;;;22.38;11.18;;;17.10;99.90;;;;;;4846495;29;20498;-86
2022/09/12 07:52:21;;;;;;;26.67;12.07;;;17.10;99.90;;;;;;4866975;29;20044;-86
2022/09/12 07:54:46;;;;;;;21.13;9.85;;;17.10;99.90;;;;;;4836909;29;20049;-88
2022/09/12 07:57:14;;;;;;;25.15;10.60;;;17.10;99.90;;;;;;4836063;29;20100;-88
2022/09/12 07:59:43;;;;;;;19.52;9.88;;;17.20;99.90;;;;;;4847788;29;20548;-88
2022/09/12 08:02:12;;;;;;;26.20;11.35;;;17.30;99.90;;;;;;4821023;29;20161;-87
2022/09/12 08:04:38;;;;;;;23.48;11.75;;;17.30;99.90;;;;;;4873145;29;20057;-87
2022/09/12 08:07:05;;;;;;;25.73;11.88;;;17.40;99.90;;;;;;4860238;29;20136;-87
2022/09/12 08:09:31;;;;;;;26.00;11.52;;;17.50;99.90;;;;;;4847376;29;20085;-87
2022/09/12 08:11:56;;;;;;;22.98;11.00;;;17.60;99.90;;;;;;4855729;29;20045;-87
2022/09/12 08:14:22;;;;;;;25.52;12.02;;;17.80;99.90;;;;;;4839167;29;20092;-87
2022/09/12 08:16:48;;;;;;;22.52;11.15;;;18.10;99.90;;;;;;4828728;29;20565;-87
2022/09/12 08:19:14;;;;;;;23.77;12.93;;;18.30;99.90;;;;;;4814474;29;20048;-87
2022/09/12 08:21:39;;;;;;;26.10;11.40;;;18.50;99.90;;;;;;4831705;29;20041;-87
2022/09/12 08:24:06;;;;;;;21.08;10.50;;;18.80;99.90;;;;;;4831749;29;20085;-87
2022/09/12 08:26:32;;;;;;;23.30;12.10;;;19.20;99.90;;;;;;4862675;29;20041;-87
2022/09/12 08:28:58;;;;;;;26.95;11.40;;;19.50;99.90;;;;;;4847639;29;20047;-86
2022/09/12 08:31:26;;;;;;;21.15;10.30;;;19.70;99.90;;;;;;4846612;29;20374;-87
2022/09/12 08:33:55;;;;;;;22.30;10.15;;;19.70;99.90;;;;;;4854062;29;20040;-86
2022/09/12 08:36:23;;;;;;;24.17;12.18;;;19.90;99.90;;;;;;4875338;29;20131;-86
2022/09/12 08:39:00;;;;;;;21.98;10.55;;;19.90;99.90;;;;;;4859546;29;20048;-84
2022/09/12 08:41:30;;;;;;;22.80;11.15;;;20.10;99.90;;;;;;4867088;29;20053;-84
2022/09/12 08:44:34;;;;;;;24.50;12.55;;;20.40;99.90;;;;;;4852478;29;20100;-87
2022/09/12 08:47:02;;;;;;;25.65;11.48;;;20.60;99.90;;;;;;4877222;29;20419;-87
2022/09/12 08:49:52;;;;;;;22.85;10.55;;;20.70;99.90;;;;;;4853353;29;20393;-87
2022/09/12 08:52:24;;;;;;;23.52;11.05;;;21.00;99.90;;;;;;4852700;29;20045;-87
2022/09/12 08:54:51;;;;;;;22.33;11.07;;;21.30;99.90;;;;;;4849459;29;20434;-87
2022/09/12 08:57:17;;;;;;;24.95;12.27;;;21.40;99.90;;;;;;4861632;29;20034;-88
2022/09/12 08:59:44;;;;;;;20.50;10.88;;;21.30;99.90;;;;;;4870861;29;20496;-88
2022/09/12 09:02:33;;;;;;;23.85;12.35;;;21.30;99.90;;;;;;4866440;29;20101;-85
2022/09/12 09:05:41;;;;;;;27.10;12.35;;;21.40;99.90;;;;;;4844107;29;20050;-85
2022/09/12 09:08:16;;;;;;;23.20;10.50;;;21.60;99.90;;;;;;4845626;29;20046;-84
2022/09/12 09:10:56;;;;;;;21.25;11.43;;;22.30;99.90;;;;;;4862327;29;20042;-85
2022/09/12 09:16:33;;;;;;;22.95;10.93;;;23.70;99.90;;;;;;4872405;29;20100;-85
2022/09/12 09:19:09;;;;;;;27.48;11.15;;;23.80;99.90;;;;;;4863746;29;20033;-84
2022/09/12 09:21:49;;;;;;;27.50;13.30;;;23.80;99.90;;;;;;4854817;29;20033;-84
2022/09/12 09:24:20;;;;;;;22.63;10.65;;;23.60;99.90;;;;;;4862936;29;20048;-87
2022/09/12 09:27:00;;;;;;;23.27;10.85;;;23.60;99.90;;;;;;4860745;29;20396;-87
2022/09/12 09:29:38;;;;;;;26.70;10.40;;;23.60;99.90;;;;;;4860375;29;20045;-87
2022/09/12 09:32:12;;;;;;;22.17;9.82;;;24.60;99.90;;;;;;4865022;29;20045;-87
2022/09/12 09:34:38;;;;;;;15.68;8.60;;;25.20;99.10;;;;;;4864103;29;20049;-90
2022/09/12 09:37:25;;;;;;;19.25;8.77;;;25.70;99.90;;;;;;4879102;29;20033;-91
2022/09/12 09:40:13;;;;;;;19.80;9.07;;;26.90;99.60;;;;;;4857318;29;20053;-90
2022/09/12 09:43:12;;;;;;;18.85;8.68;;;27.50;96.00;;;;;;4877816;29;20049;-91
2022/09/12 09:45:39;;;;;;;18.00;7.22;;;27.90;95.60;;;;;;4860952;29;20374;-91
2022/09/12 09:48:23;;;;;;;18.77;7.55;;;29.30;94.80;;;;;;4845271;29;20053;-92
2022/09/12 09:50:49;;;;;;;13.60;6.40;;;30.20;93.10;;;;;;4843648;29;20052;-86
2022/09/12 09:53:45;;;;;;;14.30;6.32;;;30.40;92.60;;;;;;4845454;29;20057;-84
2022/09/12 09:56:35;;;;;;;13.88;6.47;;;30.90;90.40;;;;;;4841790;29;20057;-84
2022/09/12 09:59:35;;;;;;;12.70;5.95;;;31.40;89.50;;;;;;4866799;29;20107;-84
2022/09/12 10:02:13;;;;;;;16.50;7.85;;;31.00;88.90;;;;;;4842046;29;20053;-86
2022/09/12 10:04:40;;;;;;;14.07;6.57;;;30.10;88.20;;;;;;4845444;29;20077;-87
2022/09/12 10:07:18;;;;;;;9.38;4.90;;;30.90;89.80;;;;;;4845334;29;20041;-88
2022/09/12 10:10:04;;;;;;;12.57;6.22;;;31.20;88.40;;;;;;4836586;24;20074;-90
2022/09/12 10:12:30;;;;;;;9.27;4.82;;;32.20;88.10;;;;;;4836056;29;20045;-89
2022/09/12 10:15:02;;;;;;;10.20;5.50;;;32.20;87.10;;;;;;4853021;29;20049;-89
2022/09/12 10:17:42;;;;;;;8.60;4.85;;;32.70;84.70;;;;;;4842318;29;20050;-89
2022/09/12 10:20:29;;;;;;;9.48;5.40;;;32.50;84.40;;;;;;4827049;29;20159;-89
2022/09/12 10:22:55;;;;;;;9.73;5.95;;;32.90;82.70;;;;;;4841976;29;20053;-88
2022/09/12 10:25:24;;;;;;;10.30;5.05;;;32.90;82.80;;;;;;4818313;29;20102;-89
2022/09/12 10:27:59;;;;;;;11.52;5.30;;;33.10;81.10;;;;;;4844741;29;20057;-88
2022/09/12 10:30:27;;;;;;;9.90;5.40;;;33.20;80.60;;;;;;4841508;29;20492;-88
2022/09/12 10:33:05;;;;;;;8.10;4.40;;;33.50;80.30;;;;;;4859448;29;20174;-89
2022/09/12 10:35:43;;;;;;;8.38;4.15;;;33.80;79.90;;;;;;4826906;29;20402;-88
2022/09/12 10:38:24;;;;;;;8.07;4.18;;;33.70;79.40;;;;;;4841856;29;20178;-88
2022/09/12 10:41:10;;;;;;;6.97;3.85;;;34.10;77.70;;;;;;4840908;29;20096;-88
2022/09/12 10:43:40;;;;;;;7.95;3.97;;;34.40;78.30;;;;;;4844845;29;20098;-88
2022/09/12 10:46:15;;;;;;;7.20;3.78;;;34.10;78.30;;;;;;4841604;29;20049;-89
2022/09/12 10:48:49;;;;;;;7.60;4.07;;;33.60;80.30;;;;;;4854829;29;20041;-89
2022/09/12 10:51:27;;;;;;;10.30;4.88;;;33.40;76.40;;;;;;4854763;29;20400;-90
2022/09/12 10:53:56;;;;;;;6.47;3.75;;;33.50;75.80;;;;;;4860020;29;20081;-90
2022/09/12 10:56:27;;;;;;;5.88;3.25;;;33.20;74.20;;;;;;4841294;29;20046;-89
2022/09/12 10:59:11;;;;;;;9.73;3.70;;;33.20;78.30;;;;;;4841475;29;20069;-90
2022/09/12 11:01:47;;;;;;;6.60;3.40;;;33.50;76.10;;;;;;4844972;29;20135;-90
2022/09/12 11:04:53;;;;;;;8.18;3.78;;;34.00;78.20;;;;;;4862601;29;20062;-90
2022/09/12 11:07:31;;;;;;;8.27;3.78;;;33.50;76.50;;;;;;4863790;29;20053;-91
2022/09/12 11:10:39;;;;;;;7.32;3.85;;;33.70;75.10;;;;;;4848191;29;20415;-92
2022/09/12 11:13:17;;;;;;;7.47;3.90;;;33.80;74.30;;;;;;4835868;29;20053;-91
2022/09/12 11:16:03;;;;;;;5.72;3.25;;;34.10;74.20;;;;;;4863621;29;20060;-92
2022/09/12 11:18:42;;;;;;;5.18;3.00;;;33.90;75.50;;;;;;4863971;29;20148;-92
2022/09/12 11:21:32;;;;;;;6.10;3.45;;;33.80;76.00;;;;;;4848170;29;20076;-92
2022/09/12 11:24:06;;;;;;;6.85;3.92;;;33.30;75.30;;;;;;4863335;29;20046;-91
2022/09/12 11:26:54;;;;;;;6.32;3.20;;;32.30;74.40;;;;;;4863762;29;20052;-91
2022/09/12 11:29:41;;;;;;;7.28;3.53;;;32.30;74.10;;;;;;4848310;29;20420;-92
2022/09/12 11:32:44;;;;;;;5.88;3.75;;;32.20;76.90;;;;;;4844851;29;20053;-86
2022/09/12 11:35:19;;;;;;;9.13;3.90;;;32.10;75.60;;;;;;4844748;29;20186;-87
2022/09/12 11:38:09;;;;;;;6.60;3.95;;;31.90;76.20;;;;;;4844814;29;20053;-87
2022/09/12 11:40:55;;;;;;;8.07;4.00;;;31.80;77.00;;;;;;4844781;29;20102;-87
2022/09/12 11:44:13;;;;;;;11.70;5.15;;;31.80;76.70;;;;;;4860072;29;20038;-87
2022/09/12 11:46:41;;;;;;;8.88;4.35;;;31.30;75.80;;;;;;4785028;29;20052;-92
2022/09/12 11:49:14;;;;;;;9.40;4.85;;;30.80;78.90;;;;;;4857620;29;20098;-92
2022/09/12 11:51:59;;;;;;;8.55;4.35;;;30.20;79.20;;;;;;4863152;29;20045;-92
2022/09/12 11:54:50;;;;;;;7.82;4.28;;;30.20;79.10;;;;;;4843329;29;20053;-87
2022/09/12 11:57:18;;;;;;;9.90;4.78;;;30.10;77.80;;;;;;4862858;29;20049;-87
2022/09/12 11:59:59;;;;;;;9.07;4.07;;;30.10;79.50;;;;;;4862898;29;20506;-91
2022/09/12 12:02:27;;;;;;;7.53;3.92;;;30.30;77.70;;;;;;4844887;29;20045;-92
2022/09/12 12:05:27;;;;;;;8.23;4.18;;;30.40;79.20;;;;;;4844353;29;20416;-87
2022/09/12 12:07:56;;;;;;;6.28;2.75;;;30.10;79.20;;;;;;4829194;29;20086;-87
2022/09/12 12:10:53;;;;;;;8.95;4.68;;;30.30;79.20;;;;;;4828711;29;20072;-87
2022/09/12 12:13:31;;;;;;;8.45;3.83;;;30.70;78.90;;;;;;4836258;29;20053;-87
2022/09/12 12:16:02;;;;;;;9.05;4.53;;;31.30;77.70;;;;;;4846294;29;20253;-87
2022/09/12 12:18:30;;;;;;;6.82;4.07;;;31.40;79.30;;;;;;4858325;29;20113;-87
2022/09/12 12:21:32;;;;;;;6.60;3.92;;;31.00;76.60;;;;;;4844343;29;20046;-87
2022/09/12 12:24:07;;;;;;;5.65;2.90;;;30.30;78.30;;;;;;4845950;29;20041;-87
2022/09/12 12:26:41;;;;;;;6.10;2.95;;;29.70;78.90;;;;;;4844558;29;20045;-87
2022/09/12 12:29:16;;;;;;;5.95;2.90;;;29.50;77.80;;;;;;4835705;29;20082;-87
2022/09/12 12:32:02;;;;;;;5.30;3.10;;;29.30;78.10;;;;;;4861561;29;20041;-87
2022/09/12 12:34:39;;;;;;;9.43;4.45;;;29.10;79.50;;;;;;4849582;29;20381;-87
2022/09/12 12:37:17;;;;;;;8.65;3.85;;;29.10;81.70;;;;;;4846270;29;20093;-92
2022/09/12 12:39:54;;;;;;;5.97;3.40;;;29.00;80.50;;;;;;4843904;29;20485;-92
2022/09/12 12:42:32;;;;;;;4.63;2.72;;;29.20;80.40;;;;;;4829033;29;20041;-92
2022/09/12 12:45:07;;;;;;;5.20;2.53;;;29.50;81.50;;;;;;4832247;29;20041;-92
2022/09/12 12:47:39;;;;;;;;;;;29.70;80.10;;;;;;4847343;29;20041;-92
2022/09/12 12:50:10;;;;;;;4.43;2.08;;;29.60;80.60;;;;;;4860757;29;19966;-91
2022/09/12 12:52:49;;;;;;;4.97;2.58;;;29.70;81.00;;;;;;4862058;29;20046;-92
2022/09/12 12:55:28;;;;;;;6.65;3.25;;;29.40;79.90;;;;;;4858793;29;20133;-90
2022/09/12 12:57:59;;;;;;;7.63;3.13;;;29.10;80.10;;;;;;4846075;29;20057;-91
2022/09/12 13:00:25;;;;;;;7.45;3.28;;;28.70;80.30;;;;;;4861828;29;20128;-92
2022/09/12 13:03:03;;;;;;;7.25;2.90;;;28.50;81.80;;;;;;4846488;29;20038;-91
2022/09/12 13:05:37;;;;;;;6.72;3.22;;;28.60;81.10;;;;;;4861331;29;20052;-91
2022/09/12 13:08:31;;;;;;;6.10;2.88;;;28.40;82.00;;;;;;4861995;29;20046;-92
2022/09/12 13:11:04;;;;;;;4.68;2.75;;;28.50;82.80;;;;;;4846176;29;20058;-86
2022/09/12 13:13:56;;;;;;;3.67;2.28;;;28.30;81.00;;;;;;4861420;29;20492;-86